createdAt,value
2022-07-29T00:02:26.129Z,34.01
2022-07-29T00:04:53.001Z,34.25
2022-07-29T00:07:19.710Z,34.23
2022-07-29T00:09:51.951Z,34.25
2022-07-29T00:12:25.480Z,34.04
2022-07-29T00:14:56.625Z,34.18
2022-07-29T00:17:24.622Z,34.02
2022-07-29T00:19:51.432Z,34.26
2022-07-29T00:22:18.012Z,34.62
2022-07-29T00:24:44.555Z,34.77
2022-07-29T00:27:11.031Z,34.84
2022-07-29T00:29:37.604Z,34.42
2022-07-29T00:32:04.441Z,34.55
2022-07-29T00:34:50.196Z,34.34
2022-07-29T00:37:17.154Z,34.36
2022-07-29T00:39:43.768Z,34.83
2022-07-29T00:42:10.811Z,34.69
2022-07-29T00:44:41.815Z,34.90
2022-07-29T00:47:09.318Z,34.83
2022-07-29T00:49:36.336Z,34.94
2022-07-29T00:52:04.208Z,34.88
2022-07-29T00:54:31.174Z,35.35
2022-07-29T00:56:59.748Z,35.55
2022-07-29T00:59:34.687Z,36.38
2022-07-29T01:02:03.214Z,36.59
2022-07-29T01:04:30.707Z,36.64
2022-07-29T01:06:57.443Z,36.65
2022-07-29T01:09:43.219Z,36.25
2022-07-29T01:12:11.644Z,36.27
2022-07-29T01:14:38.597Z,37.12
2022-07-29T01:17:13.974Z,37.13
2022-07-29T01:20:08.299Z,37.62
2022-07-29T01:22:34.841Z,37.91
2022-07-29T01:25:26.061Z,37.46
2022-07-29T01:28:00.957Z,37.32
2022-07-29T01:30:28.277Z,37.40
2022-07-29T01:33:01.692Z,36.97
2022-07-29T01:35:35.184Z,37.61
2022-07-29T01:38:08.157Z,37.04
2022-07-29T01:40:36.869Z,37.68
2022-07-29T01:43:10.553Z,37.94
2022-07-29T01:45:43.077Z,38.33
2022-07-29T01:48:24.717Z,38.00
2022-07-29T01:51:17.352Z,37.53
2022-07-29T01:53:49.106Z,37.82
2022-07-29T01:56:17.887Z,37.74
2022-07-29T01:58:44.926Z,37.43
2022-07-29T02:01:12.633Z,37.58
2022-07-29T02:03:40.191Z,37.52
2022-07-29T02:06:08.047Z,37.65
2022-07-29T02:08:34.971Z,37.78
2022-07-29T02:11:03.323Z,37.74
2022-07-29T02:13:30.973Z,37.85
2022-07-29T02:15:58.458Z,38.03
2022-07-29T02:18:26.587Z,38.15
2022-07-29T02:20:54.906Z,37.77
2022-07-29T02:23:24.049Z,38.19
2022-07-29T02:25:54.174Z,38.10
2022-07-29T02:28:22.258Z,38.36
2022-07-29T02:30:50.379Z,37.83
2022-07-29T02:33:17.541Z,38.09
2022-07-29T02:35:45.033Z,37.85
2022-07-29T02:38:33.342Z,37.79
2022-07-29T02:41:01.491Z,37.85
2022-07-29T02:43:29.070Z,37.97
2022-07-29T02:45:56.040Z,38.18
2022-07-29T02:48:35.905Z,37.73
2022-07-29T02:51:07.783Z,37.58
2022-07-29T02:53:35.697Z,38.30
2022-07-29T02:56:14.597Z,38.04
2022-07-29T02:58:49.846Z,38.60
2022-07-29T03:01:25.346Z,38.75
2022-07-29T03:03:54.295Z,38.62
2022-07-29T03:06:37.398Z,38.44
2022-07-29T03:09:12.029Z,38.23
2022-07-29T03:11:46.091Z,38.16
2022-07-29T03:14:21.439Z,38.38
2022-07-29T03:16:48.829Z,39.02
2022-07-29T03:19:15.680Z,38.97
2022-07-29T03:21:42.435Z,38.84
2022-07-29T03:24:10.800Z,38.91
2022-07-29T03:26:38.068Z,39.71
2022-07-29T03:29:04.704Z,39.83
2022-07-29T03:31:32.116Z,38.89
2022-07-29T03:34:00.260Z,39.25
2022-07-29T03:36:26.840Z,38.88
2022-07-29T03:38:53.459Z,38.95
2022-07-29T03:41:22.431Z,39.05
2022-07-29T03:43:50.542Z,39.62
2022-07-29T03:46:18.467Z,39.84
2022-07-29T03:48:50.091Z,40.14
2022-07-29T03:51:16.899Z,39.73
2022-07-29T03:53:43.604Z,39.76
2022-07-29T03:56:11.191Z,39.56
2022-07-29T03:58:38.704Z,39.29
2022-07-29T04:01:05.379Z,38.93
2022-07-29T04:03:32.029Z,39.39
2022-07-29T04:06:09.047Z,39.03
2022-07-29T04:08:35.682Z,39.00
2022-07-29T04:11:03.015Z,39.33
2022-07-29T04:13:29.760Z,39.68
2022-07-29T04:15:56.476Z,39.28
2022-07-29T04:18:23.059Z,38.88
2022-07-29T04:20:49.639Z,39.27
2022-07-29T04:23:16.554Z,39.75
2022-07-29T04:25:43.597Z,40.55
2022-07-29T04:28:10.553Z,40.37
2022-07-29T04:30:38.396Z,40.41
2022-07-29T04:33:07.381Z,39.80
2022-07-29T04:35:39.357Z,39.79
2022-07-29T04:38:17.349Z,40.37
2022-07-29T04:40:44.252Z,40.95
2022-07-29T04:43:10.917Z,40.39
2022-07-29T04:45:39.726Z,40.44
2022-07-29T04:48:06.521Z,40.22
2022-07-29T04:50:33.486Z,39.57
2022-07-29T04:53:00.004Z,39.45
2022-07-29T04:55:27.241Z,38.78
2022-07-29T04:57:53.835Z,38.97
2022-07-29T05:00:20.406Z,38.40
2022-07-29T05:02:46.992Z,39.03
2022-07-29T05:05:13.656Z,41.50
2022-07-29T05:07:42.267Z,42.15
2022-07-29T05:10:10.351Z,43.79
2022-07-29T05:12:36.981Z,43.95
2022-07-29T05:15:03.946Z,43.16
2022-07-29T05:17:30.540Z,43.01
2022-07-29T05:19:57.106Z,45.36
2022-07-29T05:22:24.185Z,46.89
2022-07-29T05:24:50.723Z,45.91
2022-07-29T05:27:17.611Z,47.35
2022-07-29T05:29:45.834Z,46.07
2022-07-29T05:32:13.664Z,44.60
2022-07-29T05:34:50.149Z,43.89
2022-07-29T05:37:18.947Z,44.38
2022-07-29T05:39:48.918Z,45.13
2022-07-29T05:42:17.363Z,44.75
2022-07-29T05:44:43.915Z,45.00
2022-07-29T05:47:10.548Z,44.74
2022-07-29T05:49:37.224Z,43.31
2022-07-29T05:52:04.299Z,42.80
2022-07-29T05:54:30.861Z,42.54
2022-07-29T05:56:57.429Z,41.60
2022-07-29T05:59:28.308Z,42.08
2022-07-29T06:01:58.112Z,42.04
2022-07-29T06:04:25.025Z,40.94
2022-07-29T06:06:51.836Z,41.20
2022-07-29T06:09:18.413Z,41.64
2022-07-29T06:11:44.959Z,41.22
2022-07-29T06:14:11.518Z,40.35
2022-07-29T06:16:38.133Z,39.62
2022-07-29T06:19:05.400Z,39.76
2022-07-29T06:21:31.973Z,40.65
2022-07-29T06:23:58.680Z,40.24
2022-07-29T06:26:31.472Z,39.70
2022-07-29T06:28:59.620Z,39.27
2022-07-29T06:31:26.287Z,41.74
2022-07-29T06:33:54.599Z,42.00
2022-07-29T06:38:51.318Z,38.39
2022-07-29T06:41:18.975Z,38.02
2022-07-29T06:43:51.030Z,39.20
2022-07-29T06:46:22.408Z,37.61
2022-07-29T06:48:49.749Z,36.86
2022-07-29T06:51:17.356Z,35.51
2022-07-29T06:53:58.323Z,35.73
2022-07-29T06:56:28.873Z,35.84
2022-07-29T06:58:55.416Z,36.67
2022-07-29T07:01:22.144Z,34.90
2022-07-29T07:03:49.261Z,35.37
2022-07-29T07:06:15.892Z,36.83
2022-07-29T07:08:42.422Z,37.54
2022-07-29T07:11:09.707Z,37.42
2022-07-29T07:13:36.775Z,36.22
2022-07-29T07:16:03.924Z,35.12
2022-07-29T07:18:30.727Z,34.27
2022-07-29T07:20:57.922Z,34.20
2022-07-29T07:23:24.902Z,34.66
2022-07-29T07:25:52.131Z,34.29
2022-07-29T07:28:18.850Z,34.16
2022-07-29T07:30:51.314Z,32.73
2022-07-29T07:33:17.871Z,32.63
2022-07-29T07:35:45.261Z,31.46
2022-07-29T07:38:11.859Z,30.35
2022-07-29T07:40:38.436Z,28.92
2022-07-29T07:43:05.140Z,28.67
2022-07-29T07:45:35.070Z,28.29
2022-07-29T07:48:01.814Z,28.39
2022-07-29T07:50:28.456Z,28.99
2022-07-29T07:52:58.819Z,28.86
2022-07-29T07:55:26.591Z,28.38
2022-07-29T07:57:54.024Z,28.25
2022-07-29T08:00:22.793Z,27.42
2022-07-29T08:02:51.018Z,28.24
2022-07-29T08:05:18.232Z,27.41
2022-07-29T08:07:46.399Z,26.92
2022-07-29T08:10:14.673Z,25.93
2022-07-29T08:12:42.668Z,25.90
2022-07-29T08:15:09.753Z,25.33
2022-07-29T08:17:36.350Z,25.33
2022-07-29T08:20:03.933Z,24.69
2022-07-29T08:22:30.561Z,24.99
2022-07-29T08:24:57.191Z,26.02
2022-07-29T08:27:45.226Z,27.38
2022-07-29T08:30:11.333Z,26.65
2022-07-29T08:32:53.289Z,26.55
2022-07-29T08:35:22.352Z,26.42
2022-07-29T08:37:48.965Z,27.09
2022-07-29T08:40:15.819Z,27.98
2022-07-29T08:42:42.409Z,27.52
2022-07-29T08:45:09.373Z,28.86
2022-07-29T08:47:40.352Z,27.05
2022-07-29T08:50:08.671Z,30.18
2022-07-29T08:52:38.166Z,27.81
2022-07-29T08:55:06.495Z,26.24
2022-07-29T08:57:34.361Z,27.34
2022-07-29T09:00:11.321Z,25.23
2022-07-29T09:02:43.198Z,23.91
2022-07-29T09:05:13.402Z,24.50
2022-07-29T09:07:40.156Z,22.80
2022-07-29T09:10:07.407Z,22.48
2022-07-29T09:12:37.962Z,21.72
2022-07-29T09:15:05.150Z,20.53
2022-07-29T09:17:49.224Z,19.86
2022-07-29T09:20:21.275Z,20.78
2022-07-29T09:22:51.774Z,19.58
2022-07-29T09:25:37.884Z,18.26
2022-07-29T09:28:07.810Z,17.34
2022-07-29T09:30:34.940Z,17.26
2022-07-29T09:33:03.888Z,15.30
2022-07-29T09:35:31.786Z,12.90
2022-07-29T09:37:58.331Z,11.00
2022-07-29T09:40:27.734Z,9.91
2022-07-29T09:42:58.122Z,10.51
2022-07-29T09:45:33.297Z,10.55
2022-07-29T09:48:01.310Z,12.13
2022-07-29T09:50:39.638Z,12.74
2022-07-29T09:53:06.581Z,13.43
2022-07-29T09:55:33.247Z,14.00
2022-07-29T09:58:20.491Z,14.09
2022-07-29T10:00:48.565Z,15.36
2022-07-29T10:03:16.667Z,16.21
2022-07-29T10:05:44.184Z,15.54
2022-07-29T10:08:13.287Z,16.11
2022-07-29T10:10:42.471Z,18.27
2022-07-29T10:13:16.492Z,19.21
2022-07-29T10:15:46.021Z,19.59
2022-07-29T10:18:14.287Z,21.00
2022-07-29T10:20:42.073Z,20.40
2022-07-29T10:23:09.892Z,20.11
2022-07-29T10:25:36.503Z,19.36
2022-07-29T10:28:03.760Z,18.93
2022-07-29T10:30:30.661Z,18.62
2022-07-29T10:33:18.939Z,17.79
2022-07-29T10:36:03.721Z,18.77
2022-07-29T10:38:50.211Z,19.97
2022-07-29T10:41:43.868Z,22.46
2022-07-29T10:44:19.078Z,25.18
2022-07-29T10:46:46.519Z,26.25
2022-07-29T10:49:15.728Z,26.16
2022-07-29T10:51:51.570Z,28.12
2022-07-29T10:54:42.441Z,30.26
2022-07-29T10:57:16.705Z,31.21
2022-07-29T10:59:44.734Z,30.28
2022-07-29T11:02:41.147Z,30.49
2022-07-29T11:05:18.730Z,31.28
2022-07-29T11:08:19.678Z,31.60
2022-07-29T11:10:49.060Z,31.04
2022-07-29T11:13:44.060Z,31.24
2022-07-29T11:16:10.633Z,32.63
2022-07-29T11:18:41.930Z,34.93
2022-07-29T11:21:51.666Z,36.13
2022-07-29T11:24:29.621Z,36.20
2022-07-29T11:27:13.178Z,35.99
2022-07-29T11:29:50.230Z,37.64
2022-07-29T11:32:22.812Z,36.72
2022-07-29T11:35:17.061Z,35.31
2022-07-29T11:37:52.802Z,34.94
2022-07-29T11:40:24.506Z,35.08
2022-07-29T11:42:52.592Z,34.59
2022-07-29T11:45:44.361Z,34.55
2022-07-29T11:48:29.643Z,34.58
2022-07-29T11:50:58.697Z,34.62
2022-07-29T11:53:25.870Z,35.72
2022-07-29T11:55:58.370Z,34.90
2022-07-29T11:58:26.225Z,34.99
2022-07-29T12:00:55.622Z,34.38
2022-07-29T12:03:34.977Z,33.93
2022-07-29T12:06:02.237Z,33.68
2022-07-29T12:08:28.776Z,33.71
2022-07-29T12:10:55.360Z,33.51
2022-07-29T12:13:22.339Z,32.18
2022-07-29T12:15:59.709Z,31.65
2022-07-29T12:18:27.825Z,32.28
2022-07-29T12:21:04.637Z,31.77
2022-07-29T12:23:35.645Z,33.62
2022-07-29T12:26:07.220Z,34.37
2022-07-29T12:28:39.270Z,34.35
2022-07-29T12:31:06.165Z,32.70
2022-07-29T12:33:35.875Z,33.66
2022-07-29T12:36:07.680Z,33.29
2022-07-29T12:38:35.865Z,33.91
2022-07-29T12:41:04.421Z,33.30
2022-07-29T12:43:31.441Z,34.22
2022-07-29T12:45:58.512Z,34.14
2022-07-29T12:48:39.137Z,33.39
2022-07-29T12:51:10.043Z,34.13
2022-07-29T12:53:37.552Z,34.85
2022-07-29T12:56:15.541Z,34.91
2022-07-29T12:58:52.660Z,34.46
2022-07-29T13:01:21.019Z,34.07
2022-07-29T13:03:57.652Z,34.87
2022-07-29T13:06:35.716Z,34.72
2022-07-29T13:09:03.892Z,34.51
2022-07-29T13:11:34.208Z,35.40
2022-07-29T13:14:05.897Z,34.46
2022-07-29T13:16:33.957Z,34.35
2022-07-29T13:19:05.581Z,35.01
2022-07-29T13:21:32.123Z,34.52
2022-07-29T13:23:58.670Z,35.19
2022-07-29T13:26:25.193Z,36.02
2022-07-29T13:28:51.754Z,36.12
2022-07-29T13:31:18.306Z,37.98
2022-07-29T13:33:44.932Z,36.72
2022-07-29T13:36:11.483Z,36.91
2022-07-29T13:38:38.308Z,36.72
2022-07-29T13:41:04.938Z,36.69
2022-07-29T13:43:32.157Z,36.00
2022-07-29T13:45:58.756Z,38.40
2022-07-29T13:48:25.370Z,39.00
2022-07-29T13:50:51.966Z,38.06
2022-07-29T13:53:18.550Z,38.70
2022-07-29T13:55:45.300Z,38.56
2022-07-29T13:58:11.956Z,39.14
2022-07-29T14:00:38.582Z,42.76
2022-07-29T14:03:05.536Z,46.17
2022-07-29T14:05:32.052Z,47.93
2022-07-29T14:07:58.618Z,50.58
2022-07-29T14:10:25.464Z,51.78
2022-07-29T14:12:52.028Z,53.89
2022-07-29T14:15:18.727Z,53.84
2022-07-29T14:17:45.249Z,53.32
2022-07-29T14:20:11.880Z,52.45
2022-07-29T14:22:42.389Z,50.52
2022-07-29T14:25:10.691Z,49.52
2022-07-29T14:27:42.735Z,47.23
2022-07-29T14:30:10.196Z,44.89
2022-07-29T14:32:36.950Z,45.06
2022-07-29T14:35:05.216Z,43.85
2022-07-29T14:37:39.364Z,43.70
2022-07-29T14:40:08.768Z,41.72
2022-07-29T14:42:35.439Z,40.66
2022-07-29T14:45:02.047Z,40.77
2022-07-29T14:47:28.633Z,40.20
2022-07-29T14:49:55.583Z,38.98
2022-07-29T14:52:22.092Z,39.86
2022-07-29T14:54:48.685Z,40.95
2022-07-29T14:57:15.215Z,38.42
2022-07-29T14:59:41.823Z,37.98
2022-07-29T15:02:08.422Z,37.93
2022-07-29T15:04:35.485Z,37.81
2022-07-29T15:07:02.818Z,36.48
2022-07-29T15:09:29.328Z,36.81
2022-07-29T15:11:56.318Z,35.71
2022-07-29T15:14:23.292Z,35.70
2022-07-29T15:16:49.822Z,36.79
2022-07-29T15:19:19.247Z,37.86
2022-07-29T15:21:48.230Z,38.03
2022-07-29T15:24:17.506Z,37.45
2022-07-29T15:26:44.528Z,37.02
2022-07-29T15:29:11.281Z,36.73
2022-07-29T15:31:37.809Z,36.95
2022-07-29T15:34:05.973Z,36.60
2022-07-29T15:36:51.443Z,36.25
2022-07-29T15:39:19.720Z,35.94
2022-07-29T15:41:46.484Z,36.71
2022-07-29T15:44:13.054Z,36.26
2022-07-29T15:46:59.317Z,36.21
2022-07-29T15:49:48.725Z,35.57
2022-07-29T15:52:25.283Z,36.05
2022-07-29T15:54:56.917Z,37.09
2022-07-29T15:57:24.602Z,36.58
2022-07-29T15:59:51.869Z,35.80
2022-07-29T16:02:18.916Z,35.13
2022-07-29T16:04:45.423Z,36.32
2022-07-29T16:07:12.344Z,36.58
2022-07-29T16:09:41.047Z,36.25
2022-07-29T16:12:14.964Z,35.21
2022-07-29T16:14:43.438Z,36.14
2022-07-29T16:17:14.382Z,35.40
2022-07-29T16:19:45.313Z,36.57
2022-07-29T16:22:12.372Z,35.35
2022-07-29T16:24:39.153Z,35.18
2022-07-29T16:27:05.812Z,35.44
2022-07-29T16:29:32.363Z,35.16
2022-07-29T16:31:58.921Z,35.35
2022-07-29T16:34:25.698Z,35.32
2022-07-29T16:36:52.245Z,35.19
2022-07-29T16:39:18.766Z,35.16
2022-07-29T16:41:45.380Z,34.16
2022-07-29T16:44:11.973Z,33.69
2022-07-29T16:46:41.400Z,33.24
2022-07-29T16:49:08.237Z,32.77
2022-07-29T16:51:34.955Z,32.42
2022-07-29T16:54:01.496Z,32.89
2022-07-29T16:56:27.977Z,32.35
2022-07-29T16:58:54.524Z,32.65
2022-07-29T17:01:21.117Z,33.30
2022-07-29T17:04:06.286Z,34.00
2022-07-29T17:06:38.372Z,33.31
2022-07-29T17:09:06.894Z,33.39
2022-07-29T17:11:53.304Z,33.25
2022-07-29T17:14:24.122Z,33.81
2022-07-29T17:17:00.653Z,34.79
2022-07-29T17:19:33.831Z,34.93
2022-07-29T17:22:09.464Z,34.42
2022-07-29T17:24:38.974Z,34.06
2022-07-29T17:27:08.496Z,33.63
2022-07-29T17:29:35.220Z,34.22
2022-07-29T17:32:01.831Z,34.22
2022-07-29T17:34:28.344Z,33.79
2022-07-29T17:36:55.013Z,34.46
2022-07-29T17:39:21.757Z,34.44
2022-07-29T17:41:48.382Z,34.18
2022-07-29T17:44:15.081Z,34.51
2022-07-29T17:46:41.608Z,34.75
2022-07-29T17:49:08.299Z,34.78
2022-07-29T17:51:34.871Z,34.58
2022-07-29T17:54:01.621Z,34.74
2022-07-29T17:56:28.154Z,35.35
2022-07-29T17:58:57.271Z,35.51
2022-07-29T18:01:24.145Z,36.94
2022-07-29T18:03:50.834Z,36.20
2022-07-29T18:06:17.367Z,37.44
2022-07-29T18:08:47.430Z,37.93
2022-07-29T18:11:15.307Z,37.49
2022-07-29T18:13:41.947Z,38.62
2022-07-29T18:16:11.896Z,38.69
2022-07-29T18:18:38.519Z,38.04
2022-07-29T18:21:05.416Z,37.61
2022-07-29T18:23:32.103Z,37.79
2022-07-29T18:25:58.738Z,38.09
2022-07-29T18:28:25.352Z,38.13
2022-07-29T18:30:52.827Z,38.51
2022-07-29T18:33:22.388Z,38.35
2022-07-29T18:35:50.680Z,38.35
2022-07-29T18:38:17.363Z,38.10
2022-07-29T18:40:45.546Z,38.18
2022-07-29T18:43:12.659Z,37.89
2022-07-29T18:45:39.599Z,38.62
2022-07-29T18:48:08.405Z,38.75
2022-07-29T18:50:39.600Z,38.52
2022-07-29T18:53:06.175Z,38.67
2022-07-29T18:55:32.809Z,38.71
2022-07-29T18:57:59.462Z,39.07
2022-07-29T19:00:26.747Z,39.01
2022-07-29T19:02:53.858Z,40.41
2022-07-29T19:05:21.071Z,40.05
2022-07-29T19:07:47.553Z,38.95
2022-07-29T19:10:14.399Z,39.08
2022-07-29T19:12:41.014Z,38.72
2022-07-29T19:15:08.368Z,39.65
2022-07-29T19:17:34.950Z,39.93
2022-07-29T19:20:02.172Z,40.67
2022-07-29T19:22:28.703Z,40.81
2022-07-29T19:24:55.250Z,40.75
2022-07-29T19:27:21.782Z,41.43
2022-07-29T19:29:48.416Z,41.21
2022-07-29T19:32:24.894Z,41.33
2022-07-29T19:35:11.251Z,41.59
2022-07-29T19:37:37.810Z,42.41
2022-07-29T19:40:05.627Z,41.79
2022-07-29T19:42:32.156Z,42.33
2022-07-29T19:44:58.792Z,41.80
2022-07-29T19:47:25.933Z,42.50
2022-07-29T19:49:52.543Z,43.15
2022-07-29T19:52:19.152Z,42.47
2022-07-29T19:54:45.702Z,42.86
2022-07-29T19:57:12.218Z,43.87
2022-07-29T19:59:39.041Z,44.49
2022-07-29T20:02:05.754Z,44.61
2022-07-29T20:04:32.393Z,44.52
2022-07-29T20:07:01.654Z,44.11
2022-07-29T20:09:28.776Z,44.41
2022-07-29T20:11:55.391Z,44.02
2022-07-29T20:14:22.478Z,44.54
2022-07-29T20:16:49.698Z,44.51
2022-07-29T20:19:16.988Z,44.40
2022-07-29T20:21:44.264Z,44.67
2022-07-29T20:24:11.115Z,44.55
2022-07-29T20:26:38.238Z,44.68
2022-07-29T20:29:05.359Z,45.17
2022-07-29T20:31:32.775Z,45.33
2022-07-29T20:34:00.638Z,45.32
2022-07-29T20:36:28.099Z,45.28
2022-07-29T20:38:55.746Z,45.00
2022-07-29T20:41:22.568Z,44.59
2022-07-29T20:43:52.713Z,44.52
2022-07-29T20:46:19.425Z,44.20
2022-07-29T20:48:47.043Z,45.06
2022-07-29T20:51:14.473Z,45.06
2022-07-29T20:53:41.561Z,46.14
2022-07-29T20:56:08.326Z,45.47
2022-07-29T20:58:36.233Z,45.79
2022-07-29T21:01:03.494Z,46.23
2022-07-29T21:03:30.110Z,45.98
2022-07-29T21:05:56.754Z,46.16
2022-07-29T21:08:23.350Z,46.56
2022-07-29T21:10:49.984Z,46.67
2022-07-29T21:13:17.056Z,47.35
2022-07-29T21:15:46.346Z,47.01
2022-07-29T21:18:32.425Z,47.84
2022-07-29T21:21:03.721Z,48.29
2022-07-29T21:23:30.906Z,48.37
2022-07-29T21:25:57.803Z,48.25
2022-07-29T21:28:27.288Z,47.57
2022-07-29T21:30:54.863Z,47.45
2022-07-29T21:33:21.863Z,47.60
2022-07-29T21:36:26.761Z,47.25
2022-07-29T21:38:35.861Z,47.84
2022-07-29T21:41:02.892Z,47.59
2022-07-29T21:43:29.544Z,47.29
2022-07-29T21:45:57.133Z,47.35
2022-07-29T21:48:25.329Z,47.32
2022-07-29T21:50:52.038Z,47.19
2022-07-29T21:53:21.985Z,46.89
2022-07-29T21:55:54.302Z,47.24
2022-07-29T21:58:23.004Z,47.14
2022-07-29T22:00:49.669Z,47.12
2022-07-29T22:03:16.680Z,47.66
2022-07-29T22:05:44.175Z,47.11
2022-07-29T22:08:10.846Z,47.26
2022-07-29T22:10:37.540Z,47.42
2022-07-29T22:13:04.664Z,47.19
2022-07-29T22:15:31.296Z,46.96
2022-07-29T22:17:57.959Z,47.70
2022-07-29T22:20:24.967Z,47.33
2022-07-29T22:22:51.621Z,47.59
2022-07-29T22:25:18.297Z,47.52
2022-07-29T22:27:45.198Z,48.12
2022-07-29T22:30:12.696Z,48.62
2022-07-29T22:32:39.531Z,48.69
2022-07-29T22:35:06.421Z,48.14
2022-07-29T22:37:33.377Z,48.73
2022-07-29T22:39:59.908Z,48.30
2022-07-29T22:42:26.526Z,48.36
2022-07-29T22:44:53.291Z,47.56
2022-07-29T22:47:38.793Z,47.05
2022-07-29T22:50:06.807Z,46.96
2022-07-29T22:52:33.355Z,47.17
2022-07-29T22:54:59.860Z,47.04
2022-07-29T22:57:26.433Z,46.93
2022-07-29T22:59:53.317Z,46.94
2022-07-29T23:02:19.864Z,48.07
2022-07-29T23:04:46.431Z,47.74
2022-07-29T23:07:12.981Z,49.36
2022-07-29T23:09:39.825Z,48.70
2022-07-29T23:12:06.919Z,49.36
2022-07-29T23:14:33.588Z,48.76
2022-07-29T23:17:00.568Z,48.56
2022-07-29T23:19:27.397Z,47.82
2022-07-29T23:21:54.048Z,47.97
2022-07-29T23:24:20.627Z,47.86
2022-07-29T23:26:47.155Z,47.93
2022-07-29T23:29:13.664Z,48.02
2022-07-29T23:31:47.766Z,47.89
2022-07-29T23:34:14.870Z,47.65
2022-07-29T23:36:42.325Z,47.87
2022-07-29T23:39:13.226Z,47.90
2022-07-29T23:41:40.027Z,47.60
2022-07-29T23:44:06.619Z,47.07
2022-07-29T23:46:33.352Z,47.53
2022-07-29T23:49:00.419Z,47.91
2022-07-29T23:51:29.101Z,48.68
2022-07-29T23:53:56.177Z,48.68
2022-07-29T23:56:23.241Z,48.83
2022-07-29T23:58:50.114Z,48.99
